Whipholt, Minnesota
Current Conditions -  °F | °C
As of 12:55 AM on Thursday 23 Oct 2014 (Local Time) from KY49 Reporting Station
Overcast Overcast  
Wind Chill: 46°   Ceiling: 600
Heat Index: 50°   Visibility: 10mi
Dew Point: 48°   Wind: 8mph
Humidity: 95%   Direction: 190°S
Pressure: 29.91"   Gusts: NA
Location:  47.0507°N, 94.6083°W
Report Text: KY49 230555Z AUTO 19007KT 10SM OVC006 10/09 A2991 RMK AO2 60004 T00980090 10128 20097 401450065
Loading
Personal Weather Stations






























Interactive Weather Map
Tropical Storm Tracking
New forecast layout! Learn more

10-Day Weather Forecast

Advertisements
Track Severe Weather on mobile